Time;durP1;ratioP1;P1;durP2;ratioP2;P2;SDS_P1;SDS_P2;PMS_P1;PMS_P2;Temp;Humidity;BMP_temperature;BMP_pressure;BME280_temperature;BME280_humidity;BME280_pressure;Samples;Min_cycle;Max_cycle;Signal;HPM_P1;HPM_P2
2022/08/26 00:01:07;;;;;;;7.78;4.40;;;;;;;;;;5156225;27;20015;-59
2022/08/26 00:03:35;;;;;;;5.05;4.18;;;;;;;;;;5159879;27;20146;-59
2022/08/26 00:06:01;;;;;;;4.97;4.15;;;;;;;;;;5159195;27;20021;-59
2022/08/26 00:08:26;;;;;;;5.57;4.72;;;;;;;;;;5159718;27;20023;-59
2022/08/26 00:10:52;;;;;;;4.93;4.43;;;;;;;;;;5159302;27;20388;-59
2022/08/26 00:13:19;;;;;;;5.63;4.65;;;;;;;;;;5159719;27;20069;-59
2022/08/26 00:15:45;;;;;;;5.88;4.50;;;;;;;;;;5159429;27;20031;-59
2022/08/26 00:18:11;;;;;;;6.90;5.25;;;;;;;;;;5158883;27;20038;-59
2022/08/26 00:20:38;;;;;;;5.47;4.40;;;;;;;;;;5159160;27;20023;-59
2022/08/26 00:23:05;;;;;;;6.85;4.50;;;;;;;;;;5159142;27;20460;-59
2022/08/26 00:25:31;;;;;;;5.72;4.82;;;;;;;;;;5158865;27;20037;-59
2022/08/26 00:27:57;;;;;;;5.63;4.50;;;;;;;;;;5158781;27;20023;-59
2022/08/26 00:30:25;;;;;;;5.25;4.45;;;;;;;;;;5158800;27;20057;-59
2022/08/26 00:32:51;;;;;;;5.90;4.63;;;;;;;;;;5159508;27;20460;-59
2022/08/26 00:35:17;;;;;;;5.88;4.95;;;;;;;;;;5159118;27;20022;-59
2022/08/26 00:37:44;;;;;;;6.80;4.80;;;;;;;;;;5158673;27;20027;-59
2022/08/26 00:40:15;;;;;;;5.55;4.97;;;;;;;;;;5158641;27;20086;-59
2022/08/26 00:42:41;;;;;;;4.68;4.13;;;;;;;;;;5158576;27;20163;-59
2022/08/26 00:45:07;;;;;;;5.32;4.15;;;;;;;;;;5158772;27;20027;-59
2022/08/26 00:47:36;;;;;;;5.97;4.78;;;;;;;;;;5158709;27;20030;-59
2022/08/26 00:50:04;;;;;;;6.28;4.40;;;;;;;;;;5158404;27;20030;-59
2022/08/26 00:52:30;;;;;;;4.88;3.85;;;;;;;;;;5158337;27;20058;-59
2022/08/26 00:55:02;;;;;;;4.90;4.15;;;;;;;;;;5158834;27;20095;-59
2022/08/26 00:57:28;;;;;;;8.75;4.47;;;;;;;;;;5158155;27;20084;-59
2022/08/26 00:59:56;;;;;;;5.63;4.03;;;;;;;;;;5158732;27;20520;-59
2022/08/26 01:02:22;;;;;;;6.22;4.30;;;;;;;;;;5158084;27;20042;-59
2022/08/26 01:04:49;;;;;;;4.40;3.67;;;;;;;;;;5158632;27;20058;-59
2022/08/26 01:07:15;;;;;;;6.07;4.30;;;;;;;;;;5158282;27;20038;-59
2022/08/26 01:09:41;;;;;;;4.82;4.32;;;;;;;;;;5158280;27;20027;-59
2022/08/26 01:12:08;;;;;;;7.25;4.97;;;;;;;;;;5157918;27;20090;-59
2022/08/26 01:14:35;;;;;;;4.25;3.85;;;;;;;;;;5157871;27;20498;-59
2022/08/26 01:17:02;;;;;;;6.18;5.15;;;;;;;;;;5158216;27;20404;-59
2022/08/26 01:19:30;;;;;;;4.60;3.92;;;;;;;;;;5158685;27;20023;-59
2022/08/26 01:22:02;;;;;;;4.15;3.72;;;;;;;;;;5157729;27;20109;-59
2022/08/26 01:24:29;;;;;;;6.03;4.88;;;;;;;;;;5158025;27;20585;-59
2022/08/26 01:26:57;;;;;;;4.80;4.30;;;;;;;;;;5157641;27;20364;-59
2022/08/26 01:29:24;;;;;;;5.70;4.20;;;;;;;;;;5157575;27;20026;-59
2022/08/26 01:31:54;;;;;;;4.93;3.92;;;;;;;;;;5158083;27;20373;-59
2022/08/26 01:34:22;;;;;;;4.72;4.18;;;;;;;;;;5158061;27;20076;-59
2022/08/26 01:36:49;;;;;;;5.13;4.47;;;;;;;;;;5157754;27;20054;-59
2022/08/26 01:39:16;;;;;;;4.82;4.13;;;;;;;;;;5157740;27;20018;-59
2022/08/26 01:41:42;;;;;;;5.95;4.10;;;;;;;;;;5157625;27;20031;-59
2022/08/26 01:44:09;;;;;;;6.70;4.05;;;;;;;;;;5157368;27;20034;-59
2022/08/26 01:46:35;;;;;;;6.22;4.80;;;;;;;;;;5157219;27;20031;-58
2022/08/26 01:49:03;;;;;;;10.18;4.47;;;;;;;;;;5157248;27;20395;-59
2022/08/26 01:51:30;;;;;;;5.35;4.30;;;;;;;;;;5157482;27;20392;-59
2022/08/26 01:53:56;;;;;;;5.43;3.65;;;;;;;;;;5157714;27;20087;-59
2022/08/26 01:56:23;;;;;;;7.28;4.82;;;;;;;;;;5156923;27;20030;-59
2022/08/26 01:58:54;;;;;;;6.13;4.57;;;;;;;;;;5156989;27;20034;-59
2022/08/26 02:01:21;;;;;;;9.77;4.95;;;;;;;;;;5157227;27;20038;-59
2022/08/26 02:03:50;;;;;;;6.60;4.95;;;;;;;;;;5157287;27;20015;-59
2022/08/26 02:06:18;;;;;;;6.57;5.90;;;;;;;;;;5156825;27;20039;-59
2022/08/26 02:08:46;;;;;;;7.28;5.63;;;;;;;;;;5157593;27;20029;-59
2022/08/26 02:11:12;;;;;;;6.60;6.00;;;;;;;;;;5157026;27;20018;-59
2022/08/26 02:13:41;;;;;;;5.18;4.68;;;;;;;;;;5156821;27;20360;-59
2022/08/26 02:16:08;;;;;;;6.95;4.68;;;;;;;;;;5157161;27;20019;-59
2022/08/26 02:18:35;;;;;;;7.13;5.05;;;;;;;;;;5156976;27;20023;-59
2022/08/26 02:21:01;;;;;;;7.60;4.60;;;;;;;;;;5157468;27;20391;-59
2022/08/26 02:23:27;;;;;;;6.53;5.22;;;;;;;;;;5156719;27;20038;-59
2022/08/26 02:26:13;;;;;;;8.27;5.32;;;;;;;;;;5156798;27;20027;-59
2022/08/26 02:28:44;;;;;;;6.30;4.93;;;;;;;;;;5156895;27;20030;-59
2022/08/26 02:31:10;;;;;;;6.00;5.40;;;;;;;;;;5156498;27;20473;-59
2022/08/26 02:33:36;;;;;;;5.63;4.97;;;;;;;;;;5156746;27;20050;-59
2022/08/26 02:36:03;;;;;;;8.57;5.60;;;;;;;;;;5156230;27;20018;-59
2022/08/26 02:38:29;;;;;;;6.25;5.22;;;;;;;;;;5156296;27;20254;-59
2022/08/26 02:40:55;;;;;;;7.57;5.18;;;;;;;;;;5156560;27;20054;-59
2022/08/26 02:43:21;;;;;;;7.85;5.35;;;;;;;;;;5157043;27;20034;-59
2022/08/26 02:45:47;;;;;;;5.65;5.07;;;;;;;;;;5156977;27;20027;-59
2022/08/26 02:48:15;;;;;;;6.72;5.85;;;;;;;;;;5156165;27;20376;-59
2022/08/26 02:50:41;;;;;;;9.45;5.45;;;;;;;;;;5156363;27;20134;-59
2022/08/26 02:53:07;;;;;;;7.00;5.50;;;;;;;;;;5156456;27;20054;-59
2022/08/26 02:55:33;;;;;;;9.50;5.47;;;;;;;;;;5156226;27;20027;-59
2022/08/26 02:58:00;;;;;;;5.82;4.70;;;;;;;;;;5156213;27;20023;-59
2022/08/26 03:00:26;;;;;;;7.53;6.50;;;;;;;;;;5156367;27;20075;-59
2022/08/26 03:02:52;;;;;;;7.15;5.82;;;;;;;;;;5155935;27;20027;-59
2022/08/26 03:05:20;;;;;;;6.47;5.50;;;;;;;;;;5156318;27;20456;-59
2022/08/26 03:07:46;;;;;;;6.22;5.63;;;;;;;;;;5156093;27;20087;-59
2022/08/26 03:10:12;;;;;;;7.50;5.85;;;;;;;;;;5155746;27;20015;-59
2022/08/26 03:12:39;;;;;;;7.68;5.63;;;;;;;;;;5155729;27;20019;-59
2022/08/26 03:15:06;;;;;;;5.95;5.35;;;;;;;;;;5156198;27;20453;-59
2022/08/26 03:17:32;;;;;;;7.25;5.35;;;;;;;;;;5155706;27;20023;-59
2022/08/26 03:19:58;;;;;;;6.72;5.13;;;;;;;;;;5156473;27;20026;-58
2022/08/26 03:22:24;;;;;;;6.45;5.57;;;;;;;;;;5156153;27;20045;-59
2022/08/26 03:24:50;;;;;;;6.63;6.00;;;;;;;;;;5156166;27;20038;-59
2022/08/26 03:27:16;;;;;;;7.00;5.60;;;;;;;;;;5155641;27;20026;-59
2022/08/26 03:32:27;;;;;;;8.88;5.20;;;;;;;;;;5155875;27;20478;-59
2022/08/26 03:34:53;;;;;;;8.75;6.15;;;;;;;;;;5156015;27;20023;-59
2022/08/26 03:37:20;;;;;;;5.22;4.72;;;;;;;;;;5158507;27;20019;-58
2022/08/26 03:39:46;;;;;;;7.00;4.82;;;;;;;;;;5160368;27;20375;-59
2022/08/26 03:42:13;;;;;;;6.68;5.80;;;;;;;;;;5159724;27;20047;-58
2022/08/26 03:44:39;;;;;;;6.10;5.30;;;;;;;;;;5159746;27;20516;-58
2022/08/26 03:47:06;;;;;;;6.57;5.20;;;;;;;;;;5160415;27;20031;-59
2022/08/26 03:49:33;;;;;;;6.85;5.47;;;;;;;;;;5159602;27;20050;-58
2022/08/26 03:51:59;;;;;;;5.88;5.28;;;;;;;;;;5159819;27;20047;-59
2022/08/26 03:54:25;;;;;;;6.07;5.28;;;;;;;;;;5159839;27;20033;-59
2022/08/26 03:56:52;;;;;;;5.63;5.13;;;;;;;;;;5159483;27;20073;-59
2022/08/26 03:59:18;;;;;;;6.90;6.30;;;;;;;;;;5159438;27;20015;-59
2022/08/26 04:01:44;;;;;;;6.15;5.22;;;;;;;;;;5159445;27;20468;-59
2022/08/26 04:04:10;;;;;;;5.85;5.22;;;;;;;;;;5160033;27;20019;-59
2022/08/26 04:06:38;;;;;;;5.88;5.28;;;;;;;;;;5159324;27;20074;-59
2022/08/26 04:09:06;;;;;;;6.15;5.40;;;;;;;;;;5159282;27;20482;-58
2022/08/26 04:11:34;;;;;;;6.55;4.78;;;;;;;;;;5159472;27;20120;-58
2022/08/26 04:14:01;;;;;;;6.53;5.60;;;;;;;;;;5159514;27;20050;-59
2022/08/26 04:16:28;;;;;;;8.07;5.28;;;;;;;;;;5159125;27;20042;-59
2022/08/26 04:18:54;;;;;;;6.45;5.85;;;;;;;;;;5159893;27;20023;-59
2022/08/26 04:21:20;;;;;;;7.00;6.03;;;;;;;;;;5159018;27;20076;-58
2022/08/26 04:23:46;;;;;;;6.30;5.13;;;;;;;;;;5159039;27;20022;-58
2022/08/26 04:26:12;;;;;;;6.15;5.55;;;;;;;;;;5159283;27;20087;-58
2022/08/26 04:28:38;;;;;;;7.90;5.40;;;;;;;;;;5158909;27;20023;-58
2022/08/26 04:31:04;;;;;;;6.68;5.80;;;;;;;;;;5159137;27;20030;-58
2022/08/26 04:33:30;;;;;;;6.88;5.93;;;;;;;;;;5158816;27;20457;-58
2022/08/26 04:36:03;;;;;;;6.00;4.78;;;;;;;;;;5158675;27;20503;-58
2022/08/26 04:38:29;;;;;;;5.30;4.70;;;;;;;;;;5158724;27;20507;-58
2022/08/26 04:40:56;;;;;;;5.95;5.22;;;;;;;;;;5158667;27;20102;-59
2022/08/26 04:43:22;;;;;;;5.60;5.00;;;;;;;;;;5158545;27;20023;-58
2022/08/26 04:45:48;;;;;;;6.22;4.97;;;;;;;;;;5158874;27;20029;-58
2022/08/26 04:48:14;;;;;;;5.45;4.88;;;;;;;;;;5157736;27;20456;-59
2022/08/26 04:50:40;;;;;;;6.07;5.47;;;;;;;;;;5158305;27;20049;-59
2022/08/26 04:53:06;;;;;;;7.28;5.63;;;;;;;;;;5158510;27;20106;-59
2022/08/26 04:55:32;;;;;;;6.80;5.97;;;;;;;;;;5158372;27;20023;-59
2022/08/26 04:57:58;;;;;;;6.88;5.30;;;;;;;;;;5158381;27;20049;-58
2022/08/26 05:00:24;;;;;;;5.85;5.15;;;;;;;;;;5158275;27;20058;-59
2022/08/26 05:02:50;;;;;;;5.20;4.70;;;;;;;;;;5157939;27;20475;-59
2022/08/26 05:05:16;;;;;;;7.47;5.30;;;;;;;;;;5158498;27;20031;-59
2022/08/26 05:07:43;;;;;;;6.45;5.45;;;;;;;;;;5158082;27;20101;-58
2022/08/26 05:10:10;;;;;;;9.13;6.25;;;;;;;;;;5158645;27;20018;-59
2022/08/26 05:12:36;;;;;;;7.70;5.60;;;;;;;;;;5158007;27;20490;-58
2022/08/26 05:15:02;;;;;;;6.00;4.63;;;;;;;;;;5158139;27;20030;-59
2022/08/26 05:17:28;;;;;;;5.65;5.03;;;;;;;;;;5157975;27;20045;-58
2022/08/26 05:19:54;;;;;;;5.32;4.82;;;;;;;;;;5157920;27;20015;-58
2022/08/26 05:22:20;;;;;;;7.63;5.88;;;;;;;;;;5157886;27;20158;-58
2022/08/26 05:24:46;;;;;;;6.43;5.82;;;;;;;;;;5158222;27;20033;-59
2022/08/26 05:27:12;;;;;;;7.13;5.43;;;;;;;;;;5157514;27;20101;-59
2022/08/26 05:29:39;;;;;;;6.72;5.95;;;;;;;;;;5158051;27;20030;-58
2022/08/26 05:32:05;;;;;;;6.72;6.13;;;;;;;;;;5157692;27;20137;-59
2022/08/26 05:34:31;;;;;;;6.60;5.60;;;;;;;;;;5158137;27;20391;-59
2022/08/26 05:36:57;;;;;;;6.63;6.03;;;;;;;;;;5157579;27;20095;-59
2022/08/26 05:39:23;;;;;;;6.80;6.10;;;;;;;;;;5157579;27;20471;-59
2022/08/26 05:41:49;;;;;;;6.55;5.95;;;;;;;;;;5158275;27;20034;-58
2022/08/26 05:44:17;;;;;;;7.63;6.82;;;;;;;;;;5157339;27;20026;-59
2022/08/26 05:46:44;;;;;;;6.80;5.85;;;;;;;;;;5157895;27;20079;-58
2022/08/26 05:49:10;;;;;;;6.60;5.85;;;;;;;;;;5157322;27;20079;-59
2022/08/26 05:51:36;;;;;;;6.93;6.18;;;;;;;;;;5157042;27;20043;-58
2022/08/26 05:54:02;;;;;;;9.15;6.60;;;;;;;;;;5157528;27;20037;-58
2022/08/26 05:56:28;;;;;;;6.55;5.95;;;;;;;;;;5157407;27;20031;-58
2022/08/26 05:58:55;;;;;;;7.55;6.40;;;;;;;;;;5156664;27;20026;-58
2022/08/26 06:01:24;;;;;;;7.35;6.57;;;;;;;;;;5157626;27;20031;-58
2022/08/26 06:03:51;;;;;;;7.97;6.03;;;;;;;;;;5157639;27;20364;-59
2022/08/26 06:06:19;;;;;;;7.05;6.32;;;;;;;;;;5157043;27;20033;-59
2022/08/26 06:08:45;;;;;;;9.00;7.07;;;;;;;;;;5157260;27;20028;-59
2022/08/26 06:11:12;;;;;;;10.75;6.70;;;;;;;;;;5156888;27;20029;-58
2022/08/26 06:13:38;;;;;;;8.38;6.70;;;;;;;;;;5157238;27;20079;-59
2022/08/26 06:16:06;;;;;;;7.88;7.07;;;;;;;;;;5156750;27;20430;-58
2022/08/26 06:18:35;;;;;;;7.20;6.38;;;;;;;;;;5157039;27;20054;-59
2022/08/26 06:21:10;;;;;;;6.97;6.38;;;;;;;;;;5156605;27;20076;-59
2022/08/26 06:26:21;;;;;;;12.48;7.72;;;;;;;;;;5156669;27;20035;-58
2022/08/26 06:28:47;;;;;;;10.23;6.18;;;;;;;;;;5156578;27;20026;-59
2022/08/26 06:31:14;;;;;;;9.38;6.90;;;;;;;;;;5156479;27;20046;-58
2022/08/26 06:33:40;;;;;;;9.32;6.50;;;;;;;;;;5156742;27;20120;-59
2022/08/26 06:36:06;;;;;;;8.05;5.72;;;;;;;;;;5156901;27;20018;-60
2022/08/26 06:38:32;;;;;;;8.68;6.30;;;;;;;;;;5156330;27;20122;-59
2022/08/26 06:40:58;;;;;;;7.15;6.38;;;;;;;;;;5157109;27;20022;-60
2022/08/26 06:43:25;;;;;;;7.40;5.43;;;;;;;;;;5156270;27;20019;-59
2022/08/26 06:45:59;;;;;;;8.63;6.75;;;;;;;;;;5156186;27;20019;-60
2022/08/26 06:48:24;;;;;;;7.90;5.82;;;;;;;;;;5156498;27;20019;-60
2022/08/26 06:50:50;;;;;;;5.90;4.95;;;;;;;;;;5156404;27;20478;-60
2022/08/26 06:53:16;;;;;;;6.70;5.72;;;;;;;;;;5156784;27;20033;-60
2022/08/26 06:55:44;;;;;;;6.25;5.65;;;;;;;;;;5156412;27;20027;-60
2022/08/26 06:58:11;;;;;;;9.10;5.22;;;;;;;;;;5155951;27;20031;-60
2022/08/26 07:00:38;;;;;;;6.22;5.63;;;;;;;;;;5156218;27;20125;-60
2022/08/26 07:03:05;;;;;;;6.85;6.00;;;;;;;;;;5155763;27;20019;-60
2022/08/26 07:05:31;;;;;;;9.07;5.93;;;;;;;;;;5155763;27;20054;-59
2022/08/26 07:07:58;;;;;;;17.17;7.20;;;;;;;;;;5155520;27;20027;-60
2022/08/26 07:10:24;;;;;;;9.77;6.97;;;;;;;;;;5155652;27;20019;-60
2022/08/26 07:12:50;;;;;;;12.68;6.45;;;;;;;;;;5156301;27;20022;-60
2022/08/26 07:15:16;;;;;;;7.85;7.05;;;;;;;;;;5155873;27;20043;-60
2022/08/26 07:17:43;;;;;;;7.10;5.55;;;;;;;;;;5155688;27;20026;-60
2022/08/26 07:20:10;;;;;;;5.85;5.25;;;;;;;;;;5155684;27;20098;-60
2022/08/26 07:22:36;;;;;;;6.43;5.68;;;;;;;;;;5155558;27;20035;-60
2022/08/26 07:25:03;;;;;;;6.95;5.95;;;;;;;;;;5155842;27;20018;-59
2022/08/26 07:27:29;;;;;;;6.05;4.90;;;;;;;;;;5155225;27;20465;-60
2022/08/26 07:29:57;;;;;;;5.30;4.75;;;;;;;;;;5155603;27;20027;-60
2022/08/26 07:32:23;;;;;;;8.60;5.15;;;;;;;;;;5155475;27;20027;-60
2022/08/26 07:34:49;;;;;;;10.98;5.60;;;;;;;;;;5155795;27;20099;-60
2022/08/26 07:37:15;;;;;;;5.72;4.28;;;;;;;;;;5155461;27;20031;-60
2022/08/26 07:39:41;;;;;;;8.68;5.60;;;;;;;;;;5155395;27;20524;-60
2022/08/26 07:42:08;;;;;;;6.80;5.68;;;;;;;;;;5155318;27;20023;-60
2022/08/26 07:44:35;;;;;;;6.93;4.80;;;;;;;;;;5155863;27;20023;-60
2022/08/26 07:47:01;;;;;;;6.03;5.20;;;;;;;;;;5155216;27;20031;-60
2022/08/26 07:49:27;;;;;;;5.60;5.10;;;;;;;;;;5155869;27;20105;-60
2022/08/26 07:51:53;;;;;;;10.75;5.93;;;;;;;;;;5154853;27;20452;-60
2022/08/26 07:54:20;;;;;;;8.98;5.82;;;;;;;;;;5155227;27;20038;-60
2022/08/26 07:56:47;;;;;;;5.72;5.03;;;;;;;;;;5155306;27;20027;-60
2022/08/26 07:59:13;;;;;;;5.18;4.45;;;;;;;;;;5155278;27;20027;-60
2022/08/26 08:01:40;;;;;;;5.32;4.65;;;;;;;;;;5155302;27;20467;-60
2022/08/26 08:04:06;;;;;;;6.72;5.57;;;;;;;;;;5155854;27;20019;-60
2022/08/26 08:06:32;;;;;;;8.10;6.07;;;;;;;;;;5155218;27;20015;-60
2022/08/26 08:08:59;;;;;;;5.40;4.85;;;;;;;;;;5155715;27;20022;-60
2022/08/26 08:11:27;;;;;;;9.30;5.57;;;;;;;;;;5155123;27;20376;-60
2022/08/26 08:13:54;;;;;;;9.60;5.45;;;;;;;;;;5155114;27;20062;-60
2022/08/26 08:16:20;;;;;;;8.02;6.20;;;;;;;;;;5154948;27;20030;-60
2022/08/26 08:18:46;;;;;;;8.48;4.93;;;;;;;;;;5155377;27;20025;-60
2022/08/26 08:21:12;;;;;;;6.50;5.53;;;;;;;;;;5155735;27;20050;-60
2022/08/26 08:23:38;;;;;;;10.15;5.22;;;;;;;;;;5158859;27;20042;-60
2022/08/26 08:26:05;;;;;;;7.85;5.53;;;;;;;;;;5159511;27;20022;-60
2022/08/26 08:28:31;;;;;;;8.73;6.10;;;;;;;;;;5159113;27;20019;-60
2022/08/26 08:30:57;;;;;;;9.85;5.38;;;;;;;;;;5159051;27;20019;-60
2022/08/26 08:33:24;;;;;;;6.80;5.88;;;;;;;;;;5159426;27;20355;-60
2022/08/26 08:35:50;;;;;;;7.25;5.85;;;;;;;;;;5159143;27;20054;-60
2022/08/26 08:38:16;;;;;;;7.95;5.45;;;;;;;;;;5158644;27;20379;-60
2022/08/26 08:40:44;;;;;;;6.75;5.60;;;;;;;;;;5158619;27;20027;-60
2022/08/26 08:43:12;;;;;;;5.57;4.25;;;;;;;;;;5158891;27;20057;-60
2022/08/26 08:45:50;;;;;;;6.10;4.82;;;;;;;;;;5159132;27;20101;-60
2022/08/26 08:48:30;;;;;;;8.73;4.75;;;;;;;;;;5158851;27;20442;-60
2022/08/26 08:51:02;;;;;;;5.05;4.55;;;;;;;;;;5158597;27;20049;-60
2022/08/26 08:53:34;;;;;;;5.85;5.25;;;;;;;;;;5159323;27;20353;-60
2022/08/26 08:56:38;;;;;;;4.80;4.03;;;;;;;;;;5158521;27;20483;-60
2022/08/26 08:59:13;;;;;;;7.50;4.25;;;;;;;;;;5094154;28;20024;-60
2022/08/26 09:01:51;;;;;;;5.25;3.70;;;;;;;;;;5094480;28;20066;-60
2022/08/26 09:04:33;;;;;;;4.57;3.72;;;;;;;;;;5133855;27;20046;-60
2022/08/26 09:07:00;;;;;;;4.85;4.03;;;;;;;;;;5158194;27;20034;-60
2022/08/26 09:09:32;;;;;;;4.55;3.67;;;;;;;;;;5158116;27;20023;-60
2022/08/26 09:12:00;;;;;;;3.67;3.25;;;;;;;;;;5158405;27;20090;-60
2022/08/26 09:14:27;;;;;;;4.68;3.47;;;;;;;;;;5158026;27;20363;-60
2022/08/26 09:17:04;;;;;;;4.15;3.17;;;;;;;;;;5157893;27;20071;-60
2022/08/26 09:19:37;;;;;;;4.05;2.92;;;;;;;;;;5158216;27;20406;-60
2022/08/26 09:22:03;;;;;;;4.93;4.10;;;;;;;;;;5158783;27;20025;-60
2022/08/26 09:24:30;;;;;;;5.10;3.58;;;;;;;;;;5157983;27;20512;-60
2022/08/26 09:26:57;;;;;;;4.78;3.83;;;;;;;;;;5157770;27;20019;-60
2022/08/26 09:29:28;;;;;;;3.17;2.33;;;;;;;;;;5157679;27;20023;-60
2022/08/26 09:31:54;;;;;;;;;;;;;;;;;;5158158;27;20057;-60
2022/08/26 09:34:20;;;;;;;3.20;2.80;;;;;;;;;;5156364;27;19903;-60
2022/08/26 09:36:50;;;;;;;3.88;3.35;;;;;;;;;;5157533;27;20207;-60
2022/08/26 09:39:25;;;;;;;4.70;3.80;;;;;;;;;;5157195;27;20025;-60
2022/08/26 09:42:05;;;;;;;4.63;3.35;;;;;;;;;;5157404;27;20022;-60
2022/08/26 09:44:31;;;;;;;;;;;;;;;;;;5157847;27;20034;-60
2022/08/26 09:46:58;;;;;;;5.70;3.47;;;;;;;;;;5158189;27;19947;-60
2022/08/26 09:49:25;;;;;;;4.75;4.03;;;;;;;;;;5157273;27;20027;-60
2022/08/26 09:52:09;;;;;;;6.47;3.75;;;;;;;;;;5157378;27;20074;-60
2022/08/26 09:54:37;;;;;;;4.75;3.65;;;;;;;;;;5157781;27;20345;-60
2022/08/26 09:57:15;;;;;;;4.55;3.60;;;;;;;;;;5157179;27;20023;-60
2022/08/26 09:59:41;;;;;;;6.95;4.45;;;;;;;;;;5157073;27;20025;-60
2022/08/26 10:02:26;;;;;;;6.85;4.05;;;;;;;;;;5157091;27;20356;-60
2022/08/26 10:04:53;;;;;;;6.90;4.60;;;;;;;;;;5157673;27;20030;-60
2022/08/26 10:07:38;;;;;;;8.00;4.32;;;;;;;;;;5157218;27;20376;-60
2022/08/26 10:10:08;;;;;;;5.20;4.53;;;;;;;;;;5157825;27;20093;-60
2022/08/26 10:12:35;;;;;;;9.35;4.63;;;;;;;;;;5157375;27;20046;-60
2022/08/26 10:15:03;;;;;;;4.95;4.43;;;;;;;;;;5157050;27;20037;-60
2022/08/26 10:17:45;;;;;;;7.85;4.60;;;;;;;;;;5156766;27;20027;-60
2022/08/26 10:20:21;;;;;;;5.85;4.38;;;;;;;;;;5156693;27;20038;-60
2022/08/26 10:22:53;;;;;;;6.82;4.80;;;;;;;;;;5156667;27;20023;-60
2022/08/26 10:25:24;;;;;;;6.97;4.38;;;;;;;;;;5156989;27;20035;-60
2022/08/26 10:28:04;;;;;;;8.00;4.85;;;;;;;;;;5157153;27;20078;-60
2022/08/26 10:30:43;;;;;;;5.32;4.82;;;;;;;;;;5156324;27;20452;-61
2022/08/26 10:33:11;;;;;;;6.00;4.45;;;;;;;;;;5156785;27;20054;-60
2022/08/26 10:35:42;;;;;;;13.73;5.57;;;;;;;;;;5155668;27;20038;-60
2022/08/26 10:38:10;;;;;;;9.52;4.97;;;;;;;;;;5157142;27;20019;-60
2022/08/26 10:40:39;;;;;;;10.30;4.82;;;;;;;;;;5156248;27;20041;-61
2022/08/26 10:43:11;;;;;;;7.25;5.55;;;;;;;;;;5156324;27;20368;-61
2022/08/26 10:45:43;;;;;;;6.97;5.18;;;;;;;;;;5155960;27;20034;-61
2022/08/26 10:48:12;;;;;;;6.30;5.03;;;;;;;;;;5156597;27;20023;-61
2022/08/26 10:50:40;;;;;;;8.43;4.40;;;;;;;;;;5156108;27;20069;-61
2022/08/26 10:53:15;;;;;;;5.95;4.00;;;;;;;;;;5156656;27;20399;-61
2022/08/26 10:56:00;;;;;;;5.93;4.40;;;;;;;;;;5155963;27;20030;-61
2022/08/26 10:58:48;;;;;;;6.13;4.25;;;;;;;;;;5155657;27;20510;-61
2022/08/26 11:04:08;;;;;;;7.05;4.45;;;;;;;;;;5156128;27;20135;-59
2022/08/26 11:06:34;;;;;;;5.25;4.70;;;;;;;;;;5156277;27;20448;-58
2022/08/26 11:09:02;;;;;;;6.03;4.43;;;;;;;;;;5155648;27;20031;-58
2022/08/26 11:11:40;;;;;;;7.38;4.63;;;;;;;;;;5155655;27;20022;-58
2022/08/26 11:14:09;;;;;;;5.40;4.28;;;;;;;;;;5155737;27;20019;-58
2022/08/26 11:16:40;;;;;;;6.47;4.80;;;;;;;;;;5155410;27;20437;-58
2022/08/26 11:19:08;;;;;;;8.95;5.07;;;;;;;;;;5155646;27;20023;-58
2022/08/26 11:21:50;;;;;;;10.45;5.10;;;;;;;;;;5155549;27;20067;-58
2022/08/26 11:24:35;;;;;;;6.18;4.72;;;;;;;;;;5156168;27;20442;-58
2022/08/26 11:27:01;;;;;;;5.13;4.63;;;;;;;;;;5155669;27;20030;-58
2022/08/26 11:29:45;;;;;;;6.78;5.30;;;;;;;;;;5155457;27;20026;-58
2022/08/26 11:32:24;;;;;;;7.20;5.00;;;;;;;;;;5155361;27;20030;-58
2022/08/26 11:34:55;;;;;;;10.10;4.93;;;;;;;;;;5155237;27;20121;-58
2022/08/26 11:37:23;;;;;;;10.02;5.28;;;;;;;;;;5156245;27;20109;-58
2022/08/26 11:39:51;;;;;;;8.60;4.25;;;;;;;;;;5155538;27;20087;-58
2022/08/26 11:42:20;;;;;;;5.28;4.50;;;;;;;;;;5155948;27;20023;-58
2022/08/26 11:44:46;;;;;;;5.13;3.50;;;;;;;;;;5155835;27;20026;-58
2022/08/26 11:47:14;;;;;;;12.55;4.88;;;;;;;;;;5155951;27;20401;-58
2022/08/26 11:49:41;;;;;;;7.18;5.20;;;;;;;;;;5155396;27;20067;-59
2022/08/26 11:52:18;;;;;;;8.52;5.13;;;;;;;;;;5155406;27;20129;-58
2022/08/26 11:55:01;;;;;;;8.15;5.55;;;;;;;;;;5155448;27;20030;-58
2022/08/26 11:57:27;;;;;;;7.30;5.18;;;;;;;;;;5156938;27;20064;-58
2022/08/26 11:59:53;;;;;;;5.97;4.53;;;;;;;;;;5159409;27;20067;-59
2022/08/26 12:02:19;;;;;;;5.70;4.35;;;;;;;;;;5159290;27;20046;-59
2022/08/26 12:04:47;;;;;;;8.10;5.07;;;;;;;;;;5159392;27;20067;-59
2022/08/26 12:07:15;;;;;;;5.22;4.53;;;;;;;;;;5159869;27;20033;-59
2022/08/26 12:09:55;;;;;;;8.98;5.68;;;;;;;;;;5159288;27;20050;-59
2022/08/26 12:12:23;;;;;;;8.48;6.22;;;;;;;;;;5159203;27;20524;-59
2022/08/26 12:14:49;;;;;;;7.80;4.38;;;;;;;;;;5159721;27;20409;-59
2022/08/26 12:17:25;;;;;;;9.75;5.20;;;;;;;;;;5159142;27;20069;-59
2022/08/26 12:19:51;;;;;;;6.30;5.03;;;;;;;;;;5159465;27;20398;-59
2022/08/26 12:22:22;;;;;;;6.70;5.15;;;;;;;;;;5159070;27;20018;-59
2022/08/26 12:24:50;;;;;;;9.05;5.25;;;;;;;;;;5159137;27;20041;-59
2022/08/26 12:27:20;;;;;;;7.57;4.95;;;;;;;;;;5158987;27;20502;-59
2022/08/26 12:29:59;;;;;;;6.60;5.40;;;;;;;;;;5158892;27;20023;-59
2022/08/26 12:32:30;;;;;;;10.88;5.50;;;;;;;;;;5159245;27;20022;-59
2022/08/26 12:34:56;;;;;;;;;;;;;;;;;;5159139;27;20527;-59
2022/08/26 12:37:22;;;;;;;8.85;5.50;;;;;;;;;;5159041;27;20221;-59
2022/08/26 12:39:48;;;;;;;6.43;4.47;;;;;;;;;;5159264;27;20110;-59
2022/08/26 12:42:14;;;;;;;8.95;5.28;;;;;;;;;;5158688;27;20133;-59
2022/08/26 12:44:43;;;;;;;6.78;4.72;;;;;;;;;;5158708;27;20487;-59
2022/08/26 12:47:21;;;;;;;5.78;5.10;;;;;;;;;;5158258;27;20392;-59
2022/08/26 12:49:48;;;;;;;11.68;6.25;;;;;;;;;;5158506;27;20029;-59
2022/08/26 12:52:29;;;;;;;14.18;5.68;;;;;;;;;;5159397;27;20059;-59
2022/08/26 12:55:00;;;;;;;9.07;5.03;;;;;;;;;;5158453;27;20074;-59
2022/08/26 12:57:25;;;;;;;;;;;;;;;;;;5159481;27;20026;-60
2022/08/26 12:59:51;;;;;;;10.80;5.32;;;;;;;;;;5158334;27;20284;-59
2022/08/26 13:02:39;;;;;;;6.50;5.55;;;;;;;;;;5158208;27;20483;-59
2022/08/26 13:05:05;;;;;;;12.40;5.38;;;;;;;;;;5158209;27;20026;-59
2022/08/26 13:07:31;;;;;;;6.93;5.00;;;;;;;;;;5157912;27;20472;-59
2022/08/26 13:09:58;;;;;;;8.10;5.18;;;;;;;;;;5158127;27;20023;-59
2022/08/26 13:12:32;;;;;;;8.02;5.10;;;;;;;;;;5158057;27;20054;-59
2022/08/26 13:14:59;;;;;;;5.85;5.25;;;;;;;;;;5158307;27;20035;-59
2022/08/26 13:17:26;;;;;;;6.55;5.22;;;;;;;;;;5158017;27;20030;-59
2022/08/26 13:19:52;;;;;;;7.90;5.07;;;;;;;;;;5158500;27;20019;-59
2022/08/26 13:22:22;;;;;;;8.10;4.55;;;;;;;;;;5157922;27;20490;-59
2022/08/26 13:24:50;;;;;;;5.88;5.22;;;;;;;;;;5158406;27;20031;-59
2022/08/26 13:27:19;;;;;;;12.02;5.65;;;;;;;;;;5158597;27;20102;-59
2022/08/26 13:29:45;;;;;;;7.03;4.90;;;;;;;;;;5158583;27;20043;-59
2022/08/26 13:32:12;;;;;;;7.07;5.05;;;;;;;;;;5157938;27;20026;-59
2022/08/26 13:34:38;;;;;;;6.68;4.95;;;;;;;;;;5158272;27;20026;-59
2022/08/26 13:37:04;;;;;;;9.60;5.28;;;;;;;;;;5157547;27;20040;-59
2022/08/26 13:39:30;;;;;;;6.82;4.45;;;;;;;;;;5157543;27;20063;-59
2022/08/26 13:41:56;;;;;;;6.55;3.92;;;;;;;;;;5158067;27;20027;-59
2022/08/26 13:44:21;;;;;;;5.88;4.32;;;;;;;;;;5157478;27;20027;-59
2022/08/26 13:46:48;;;;;;;6.78;4.47;;;;;;;;;;5157414;27;20440;-59
2022/08/26 13:49:14;;;;;;;9.85;4.22;;;;;;;;;;5157385;27;20022;-59
2022/08/26 13:51:40;;;;;;;7.80;4.60;;;;;;;;;;5156881;27;20095;-59
2022/08/26 13:54:06;;;;;;;5.55;4.45;;;;;;;;;;5158098;27;20033;-59
2022/08/26 13:56:32;;;;;;;6.60;4.80;;;;;;;;;;5157150;27;20387;-59
2022/08/26 13:59:00;;;;;;;6.72;4.45;;;;;;;;;;5157125;27;20037;-59
2022/08/26 14:01:26;;;;;;;7.25;5.50;;;;;;;;;;5157383;27;20109;-60
2022/08/26 14:03:52;;;;;;;6.13;4.60;;;;;;;;;;5157648;27;20025;-59
2022/08/26 14:06:18;;;;;;;6.28;4.03;;;;;;;;;;5156943;27;20101;-59
2022/08/26 14:08:45;;;;;;;6.18;4.57;;;;;;;;;;5157726;27;20046;-59
2022/08/26 14:11:11;;;;;;;6.30;4.53;;;;;;;;;;5156550;27;20472;-59
2022/08/26 14:13:38;;;;;;;11.25;4.55;;;;;;;;;;5157168;27;20019;-59
2022/08/26 14:16:07;;;;;;;5.00;3.95;;;;;;;;;;5156952;27;20027;-59
2022/08/26 14:18:34;;;;;;;7.47;4.35;;;;;;;;;;5156796;27;20029;-59
2022/08/26 14:21:00;;;;;;;9.57;4.97;;;;;;;;;;5156003;27;20034;-59
2022/08/26 14:23:26;;;;;;;6.65;4.22;;;;;;;;;;5157044;27;20018;-59
2022/08/26 14:25:52;;;;;;;7.63;4.10;;;;;;;;;;5156603;27;20103;-59
2022/08/26 14:28:18;;;;;;;8.93;4.75;;;;;;;;;;5157097;27;20072;-59
2022/08/26 14:30:47;;;;;;;5.13;4.15;;;;;;;;;;5156563;27;20070;-59
2022/08/26 14:33:15;;;;;;;7.45;4.53;;;;;;;;;;5156817;27;20030;-59
2022/08/26 14:35:41;;;;;;;6.72;4.82;;;;;;;;;;5156556;27;20367;-59
2022/08/26 14:38:07;;;;;;;6.95;5.32;;;;;;;;;;5156937;27;20106;-59
2022/08/26 14:40:33;;;;;;;5.63;4.05;;;;;;;;;;5156280;27;20395;-59
2022/08/26 14:43:00;;;;;;;7.07;4.00;;;;;;;;;;5156304;27;20026;-59
2022/08/26 14:45:27;;;;;;;4.93;4.28;;;;;;;;;;5156037;27;20031;-60
2022/08/26 14:47:55;;;;;;;5.65;4.18;;;;;;;;;;5156262;27;20072;-59
2022/08/26 14:50:22;;;;;;;10.77;4.72;;;;;;;;;;5155980;27;20023;-59
2022/08/26 14:55:34;;;;;;;9.60;4.30;;;;;;;;;;5156229;27;20084;-59
2022/08/26 14:58:01;;;;;;;9.68;4.25;;;;;;;;;;5156006;27;20109;-59
2022/08/26 15:00:27;;;;;;;6.80;4.03;;;;;;;;;;5156485;27;20022;-59